Boussu, Belgium
Current Conditions -  °F | °C
As of 2:25 PM on Friday 24 Oct 2014 (Local Time) from EBCV Reporting Station
Overcast Overcast  
Wind Chill: 55°   Ceiling: 2100
Heat Index: 55°   Visibility: 6mi
Dew Point: 50°   Wind: 12mph
Humidity: 82%   Direction: 190°S
Pressure: 30.06"   Gusts: NA
Location:  50.43°N, 3.79°E
Report Text: EBCV 241225Z AUTO 19010KT 9999 OVC021/// 13/10 Q1018 WHT
Loading
Personal Weather Stations






























Interactive Weather Map
Tropical Storm Tracking
New forecast layout! Learn more

10-Day Weather Forecast

Advertisements
Track Severe Weather on mobile